sensor_id;sensor_type;location;lat;lon;timestamp;pressure;altitude;pressure_sealevel;temperature;humidity
69911;BME280;63555;49.920;17.868;2023-04-20T00:01:49;98890.44;;;4.73;86.21
69911;BME280;63555;49.920;17.868;2023-04-20T00:06:50;98899.03;;;4.75;86.65
69911;BME280;63555;49.920;17.868;2023-04-20T00:11:52;98891.13;;;4.76;86.30
69911;BME280;63555;49.920;17.868;2023-04-20T00:16:52;98887.81;;;4.73;86.27
69911;BME280;63555;49.920;17.868;2023-04-20T00:21:53;98873.16;;;4.70;86.12
69911;BME280;63555;49.920;17.868;2023-04-20T00:26:53;98871.47;;;4.69;86.35
69911;BME280;63555;49.920;17.868;2023-04-20T00:31:54;98876.84;;;4.66;86.57
69911;BME280;63555;49.920;17.868;2023-04-20T00:36:54;98870.00;;;4.64;86.74
69911;BME280;63555;49.920;17.868;2023-04-20T00:42:02;98866.38;;;4.66;86.84
69911;BME280;63555;49.920;17.868;2023-04-20T00:47:04;98862.09;;;4.65;86.70
69911;BME280;63555;49.920;17.868;2023-04-20T00:52:04;98860.31;;;4.66;87.05
69911;BME280;63555;49.920;17.868;2023-04-20T00:57:05;98861.00;;;4.69;86.77
69911;BME280;63555;49.920;17.868;2023-04-20T01:02:05;98858.41;;;4.69;87.21
69911;BME280;63555;49.920;17.868;2023-04-20T01:07:06;98861.69;;;4.73;86.85
69911;BME280;63555;49.920;17.868;2023-04-20T01:12:08;98854.09;;;4.68;86.96
69911;BME280;63555;49.920;17.868;2023-04-20T01:17:08;98851.47;;;4.68;86.97
69911;BME280;63555;49.920;17.868;2023-04-20T01:22:15;98859.31;;;4.68;87.08
69911;BME280;63555;49.920;17.868;2023-04-20T01:27:16;98855.63;;;4.72;86.90
69911;BME280;63555;49.920;17.868;2023-04-20T01:32:16;98849.31;;;4.76;87.14
69911;BME280;63555;49.920;17.868;2023-04-20T01:37:17;98848.31;;;4.79;86.90
69911;BME280;63555;49.920;17.868;2023-04-20T01:42:17;98838.72;;;4.79;87.08
69911;BME280;63555;49.920;17.868;2023-04-20T01:47:18;98846.56;;;4.79;87.18
69911;BME280;63555;49.920;17.868;2023-04-20T01:52:18;98851.78;;;4.79;86.99
69911;BME280;63555;49.920;17.868;2023-04-20T01:57:18;98848.41;;;4.77;87.23
69911;BME280;63555;49.920;17.868;2023-04-20T02:02:19;98844.25;;;4.73;87.07
69911;BME280;63555;49.920;17.868;2023-04-20T02:07:19;98840.81;;;4.73;87.02
69911;BME280;63555;49.920;17.868;2023-04-20T02:12:20;98839.13;;;4.72;87.27
69911;BME280;63555;49.920;17.868;2023-04-20T02:17:20;98837.44;;;4.71;87.29
69911;BME280;63555;49.920;17.868;2023-04-20T02:22:20;98843.41;;;4.73;87.14
69911;BME280;63555;49.920;17.868;2023-04-20T02:27:21;98850.41;;;4.72;87.26
69911;BME280;63555;49.920;17.868;2023-04-20T02:32:21;98841.81;;;4.70;87.43
69911;BME280;63555;49.920;17.868;2023-04-20T02:37:22;98839.13;;;4.72;87.23
69911;BME280;63555;49.920;17.868;2023-04-20T02:42:22;98848.72;;;4.71;87.24
69911;BME280;63555;49.920;17.868;2023-04-20T02:47:22;98849.56;;;4.72;87.48
69911;BME280;63555;49.920;17.868;2023-04-20T02:52:23;98848.56;;;4.74;87.79
69911;BME280;63555;49.920;17.868;2023-04-20T02:57:23;98857.94;;;4.78;87.55
69911;BME280;63555;49.920;17.868;2023-04-20T03:02:24;98852.63;;;4.80;87.47
69911;BME280;63555;49.920;17.868;2023-04-20T03:07:25;98848.03;;;4.85;87.21
69911;BME280;63555;49.920;17.868;2023-04-20T03:12:25;98845.31;;;4.87;87.25
69911;BME280;63555;49.920;17.868;2023-04-20T03:17:25;98841.94;;;4.85;87.36
69911;BME280;63555;49.920;17.868;2023-04-20T03:22:26;98844.41;;;4.88;87.18
69911;BME280;63555;49.920;17.868;2023-04-20T03:27:26;98848.63;;;4.90;87.27
69911;BME280;63555;49.920;17.868;2023-04-20T03:32:26;98838.09;;;4.92;87.25
69911;BME280;63555;49.920;17.868;2023-04-20T03:37:27;98846.78;;;4.92;87.35
69911;BME280;63555;49.920;17.868;2023-04-20T03:42:27;98849.41;;;4.92;87.51
69911;BME280;63555;49.920;17.868;2023-04-20T03:47:29;98859.84;;;4.92;87.14
69911;BME280;63555;49.920;17.868;2023-04-20T03:52:29;98869.28;;;4.95;87.38
69911;BME280;63555;49.920;17.868;2023-04-20T03:57:29;98879.59;;;4.98;87.23
69911;BME280;63555;49.920;17.868;2023-04-20T04:02:30;98884.75;;;4.99;87.48
69911;BME280;63555;49.920;17.868;2023-04-20T04:07:30;98885.59;;;5.00;87.40
69911;BME280;63555;49.920;17.868;2023-04-20T04:12:31;98888.19;;;5.00;87.79
69911;BME280;63555;49.920;17.868;2023-04-20T04:17:31;98896.03;;;5.00;87.45
69911;BME280;63555;49.920;17.868;2023-04-20T04:22:31;98888.28;;;4.98;87.15
69911;BME280;63555;49.920;17.868;2023-04-20T04:27:32;98882.13;;;4.99;87.30
69911;BME280;63555;49.920;17.868;2023-04-20T04:32:36;98883.72;;;5.02;87.16
69911;BME280;63555;49.920;17.868;2023-04-20T04:37:37;98888.81;;;5.05;87.43
69911;BME280;63555;49.920;17.868;2023-04-20T04:42:37;98898.25;;;5.07;87.32
69911;BME280;63555;49.920;17.868;2023-04-20T04:47:38;98900.88;;;5.07;87.24
69911;BME280;63555;49.920;17.868;2023-04-20T04:52:40;98899.09;;;5.08;87.33
69911;BME280;63555;49.920;17.868;2023-04-20T04:57:40;98898.09;;;5.10;87.42
69911;BME280;63555;49.920;17.868;2023-04-20T05:02:40;98903.16;;;5.13;87.36
69911;BME280;63555;49.920;17.868;2023-04-20T05:07:41;98903.84;;;5.17;86.97
69911;BME280;63555;49.920;17.868;2023-04-20T05:12:41;98909.00;;;5.19;87.15
69911;BME280;63555;49.920;17.868;2023-04-20T05:17:41;98907.25;;;5.19;86.97
69911;BME280;63555;49.920;17.868;2023-04-20T05:22:42;98916.72;;;5.22;87.65
69911;BME280;63555;49.920;17.868;2023-04-20T05:27:42;98915.66;;;5.26;88.01
69911;BME280;63555;49.920;17.868;2023-04-20T05:32:42;98918.94;;;5.29;87.05
69911;BME280;63555;49.920;17.868;2023-04-20T05:37:43;98920.56;;;5.32;87.12
69911;BME280;63555;49.920;17.868;2023-04-20T05:42:43;98919.56;;;5.34;87.35
69911;BME280;63555;49.920;17.868;2023-04-20T05:47:56;98921.75;;;5.42;87.47
69911;BME280;63555;49.920;17.868;2023-04-20T05:52:57;98914.38;;;5.50;87.29
69911;BME280;63555;49.920;17.868;2023-04-20T05:57:57;98919.09;;;5.59;87.23
69911;BME280;63555;49.920;17.868;2023-04-20T06:02:58;98931.03;;;5.65;87.32
69911;BME280;63555;49.920;17.868;2023-04-20T06:07:58;98925.47;;;5.71;87.54
69911;BME280;63555;49.920;17.868;2023-04-20T06:12:58;98937.88;;;5.83;87.21
69911;BME280;63555;49.920;17.868;2023-04-20T06:17:59;98937.34;;;5.94;87.43
69911;BME280;63555;49.920;17.868;2023-04-20T06:23:00;98932.22;;;6.08;87.33
69911;BME280;63555;49.920;17.868;2023-04-20T06:28:02;98926.66;;;6.30;87.32
69911;BME280;63555;49.920;17.868;2023-04-20T06:33:02;98937.53;;;6.54;87.42
69911;BME280;63555;49.920;17.868;2023-04-20T06:38:02;98946.63;;;6.78;87.20
69911;BME280;63555;49.920;17.868;2023-04-20T06:43:03;98946.34;;;6.83;85.75
69911;BME280;63555;49.920;17.868;2023-04-20T06:48:04;98942.13;;;6.80;85.99
69911;BME280;63555;49.920;17.868;2023-04-20T06:53:05;98943.56;;;6.86;85.81
69911;BME280;63555;49.920;17.868;2023-04-20T06:58:05;98944.75;;;6.96;86.73
69911;BME280;63555;49.920;17.868;2023-04-20T07:03:06;98934.50;;;7.21;87.14
69911;BME280;63555;49.920;17.868;2023-04-20T07:08:06;98951.13;;;7.50;85.85
69911;BME280;63555;49.920;17.868;2023-04-20T07:13:07;98953.22;;;7.59;85.31
69911;BME280;63555;49.920;17.868;2023-04-20T07:18:08;98960.34;;;7.72;85.38
69911;BME280;63555;49.920;17.868;2023-04-20T07:23:08;98960.47;;;7.84;85.09
69911;BME280;63555;49.920;17.868;2023-04-20T07:28:08;98960.00;;;7.92;84.92
69911;BME280;63555;49.920;17.868;2023-04-20T07:33:09;98967.28;;;8.01;84.93
69911;BME280;63555;49.920;17.868;2023-04-20T07:38:10;98967.09;;;8.04;84.66
69911;BME280;63555;49.920;17.868;2023-04-20T07:43:11;98970.47;;;8.06;84.43
69911;BME280;63555;49.920;17.868;2023-04-20T07:48:11;98963.81;;;8.15;84.60
69911;BME280;63555;49.920;17.868;2023-04-20T07:53:12;98956.09;;;8.26;84.89
69911;BME280;63555;49.920;17.868;2023-04-20T07:58:13;98961.34;;;8.40;84.33
69911;BME280;63555;49.920;17.868;2023-04-20T08:03:16;98961.97;;;8.58;84.38
69911;BME280;63555;49.920;17.868;2023-04-20T08:08:16;98967.66;;;8.79;83.96
69911;BME280;63555;49.920;17.868;2023-04-20T08:13:17;98974.34;;;8.97;83.29
69911;BME280;63555;49.920;17.868;2023-04-20T08:18:17;98976.47;;;9.05;82.86
69911;BME280;63555;49.920;17.868;2023-04-20T08:23:17;98970.56;;;9.01;83.03
69911;BME280;63555;49.920;17.868;2023-04-20T08:28:18;98982.97;;;8.99;82.99
69911;BME280;63555;49.920;17.868;2023-04-20T08:33:18;98986.75;;;8.95;83.23
69911;BME280;63555;49.920;17.868;2023-04-20T08:38:18;98983.47;;;8.91;82.88
69911;BME280;63555;49.920;17.868;2023-04-20T08:43:20;98980.84;;;8.91;82.95
69911;BME280;63555;49.920;17.868;2023-04-20T08:48:21;98981.69;;;8.92;82.65
69911;BME280;63555;49.920;17.868;2023-04-20T08:53:21;98976.94;;;8.84;82.58
69911;BME280;63555;49.920;17.868;2023-04-20T08:58:28;98980.94;;;8.90;82.93
69911;BME280;63555;49.920;17.868;2023-04-20T09:03:36;98976.66;;;9.02;82.99
69911;BME280;63555;49.920;17.868;2023-04-20T09:08:39;98968.75;;;9.41;83.16
69911;BME280;63555;49.920;17.868;2023-04-20T09:13:39;98976.78;;;9.90;82.40
69911;BME280;63555;49.920;17.868;2023-04-20T09:18:51;98968.41;;;10.47;81.40
69911;BME280;63555;49.920;17.868;2023-04-20T09:24:00;98968.25;;;11.09;80.82
69911;BME280;63555;49.920;17.868;2023-04-20T09:29:02;98968.59;;;11.97;78.89
69911;BME280;63555;49.920;17.868;2023-04-20T09:34:03;98961.63;;;12.41;77.80
69911;BME280;63555;49.920;17.868;2023-04-20T09:39:13;98967.78;;;12.85;76.90
69911;BME280;63555;49.920;17.868;2023-04-20T09:44:15;98966.38;;;13.13;75.77
69911;BME280;63555;49.920;17.868;2023-04-20T09:49:17;98963.88;;;13.11;75.40
69911;BME280;63555;49.920;17.868;2023-04-20T09:54:18;98960.00;;;13.15;75.30
69911;BME280;63555;49.920;17.868;2023-04-20T09:59:20;98954.22;;;13.21;74.24
69911;BME280;63555;49.920;17.868;2023-04-20T10:04:21;98948.56;;;13.15;74.31
69911;BME280;63555;49.920;17.868;2023-04-20T10:09:23;98947.25;;;13.20;74.11
69911;BME280;63555;49.920;17.868;2023-04-20T10:14:25;98940.28;;;13.40;73.41
69911;BME280;63555;49.920;17.868;2023-04-20T10:19:42;98934.34;;;13.78;73.37
69911;BME280;63555;49.920;17.868;2023-04-20T10:24:42;98927.91;;;14.82;71.43
69911;BME280;63555;49.920;17.868;2023-04-20T10:29:43;98921.19;;;15.07;69.67
69911;BME280;63555;49.920;17.868;2023-04-20T10:34:43;98914.50;;;15.03;69.60
69911;BME280;63555;49.920;17.868;2023-04-20T10:39:45;98923.41;;;15.40;68.94
69911;BME280;63555;49.920;17.868;2023-04-20T10:44:50;98917.38;;;15.57;68.37
69911;BME280;63555;49.920;17.868;2023-04-20T10:49:50;98914.47;;;15.60;67.05
69911;BME280;63555;49.920;17.868;2023-04-20T10:54:50;98916.13;;;15.33;67.27
69911;BME280;63555;49.920;17.868;2023-04-20T10:59:51;98905.81;;;14.91;67.99
69911;BME280;63555;49.920;17.868;2023-04-20T11:04:51;98902.38;;;15.56;68.52
69911;BME280;63555;49.920;17.868;2023-04-20T11:09:53;98885.91;;;17.69;64.42
69911;BME280;63555;49.920;17.868;2023-04-20T11:14:57;98890.84;;;18.74;61.24
69911;BME280;63555;49.920;17.868;2023-04-20T11:20:10;98878.56;;;18.48;60.71
69911;BME280;63555;49.920;17.868;2023-04-20T11:25:11;98883.44;;;18.52;61.33
69911;BME280;63555;49.920;17.868;2023-04-20T11:30:12;98879.66;;;18.71;59.74
69911;BME280;63555;49.920;17.868;2023-04-20T11:35:13;98883.91;;;17.71;60.33
69911;BME280;63555;49.920;17.868;2023-04-20T11:40:13;98883.03;;;17.01;62.16
69911;BME280;63555;49.920;17.868;2023-04-20T11:45:14;98873.19;;;17.37;61.25
69911;BME280;63555;49.920;17.868;2023-04-20T11:50:14;98879.19;;;17.22;61.13
69911;BME280;63555;49.920;17.868;2023-04-20T11:55:15;98870.09;;;16.71;61.76
69911;BME280;63555;49.920;17.868;2023-04-20T12:00:16;98867.66;;;16.32;62.48
69911;BME280;63555;49.920;17.868;2023-04-20T12:05:17;98871.06;;;15.97;63.10
69911;BME280;63555;49.920;17.868;2023-04-20T12:10:17;98873.47;;;15.63;63.60
69911;BME280;63555;49.920;17.868;2023-04-20T12:15:17;98864.94;;;15.40;63.95
69911;BME280;63555;49.920;17.868;2023-04-20T12:20:18;98865.25;;;15.18;64.45
69911;BME280;63555;49.920;17.868;2023-04-20T12:25:19;98861.88;;;15.25;64.59
69911;BME280;63555;49.920;17.868;2023-04-20T12:30:19;98855.25;;;15.68;64.35
69911;BME280;63555;49.920;17.868;2023-04-20T12:35:19;98852.16;;;16.45;63.17
69911;BME280;63555;49.920;17.868;2023-04-20T12:40:21;98846.19;;;18.00;60.87
69911;BME280;63555;49.920;17.868;2023-04-20T12:45:21;98842.94;;;19.14;58.09
69911;BME280;63555;49.920;17.868;2023-04-20T12:50:21;98842.47;;;20.29;56.11
69911;BME280;63555;49.920;17.868;2023-04-20T12:55:22;98841.47;;;21.29;52.89
69911;BME280;63555;49.920;17.868;2023-04-20T13:00:23;98839.41;;;20.09;54.57
69911;BME280;63555;49.920;17.868;2023-04-20T13:05:23;98842.09;;;18.89;57.10
69911;BME280;63555;49.920;17.868;2023-04-20T13:10:23;98838.28;;;17.82;58.70
69911;BME280;63555;49.920;17.868;2023-04-20T13:15:24;98833.88;;;16.78;60.46
69911;BME280;63555;49.920;17.868;2023-04-20T13:20:24;98825.34;;;16.11;61.94
69911;BME280;63555;49.920;17.868;2023-04-20T13:25:30;98833.84;;;15.97;62.31
69911;BME280;63555;49.920;17.868;2023-04-20T13:30:33;98830.34;;;16.42;61.94
69911;BME280;63555;49.920;17.868;2023-04-20T13:35:34;98831.81;;;16.90;60.82
69911;BME280;63555;49.920;17.868;2023-04-20T13:40:35;98832.59;;;16.82;60.67
69911;BME280;63555;49.920;17.868;2023-04-20T13:45:35;98829.19;;;16.27;61.49
69911;BME280;63555;49.920;17.868;2023-04-20T13:50:36;98827.03;;;15.85;62.67
69911;BME280;63555;49.920;17.868;2023-04-20T13:55:36;98829.09;;;15.64;63.70
69911;BME280;63555;49.920;17.868;2023-04-20T14:00:37;98826.94;;;15.77;63.64
69911;BME280;63555;49.920;17.868;2023-04-20T14:05:37;98808.34;;;17.37;61.10
69911;BME280;63555;49.920;17.868;2023-04-20T14:10:38;98797.91;;;20.05;55.67
69911;BME280;63555;49.920;17.868;2023-04-20T14:15:39;98796.16;;;22.08;51.35
69911;BME280;63555;49.920;17.868;2023-04-20T14:20:40;98785.22;;;23.66;48.66
69911;BME280;63555;49.920;17.868;2023-04-20T14:25:41;98785.00;;;24.89;46.23
69911;BME280;63555;49.920;17.868;2023-04-20T14:30:42;98775.50;;;25.20;45.58
69911;BME280;63555;49.920;17.868;2023-04-20T14:35:43;98780.38;;;23.96;46.07
69911;BME280;63555;49.920;17.868;2023-04-20T14:40:45;98781.72;;;21.36;50.24
69911;BME280;63555;49.920;17.868;2023-04-20T14:45:46;98775.44;;;19.20;53.78
69911;BME280;63555;49.920;17.868;2023-04-20T14:50:47;98780.13;;;17.94;56.20
69911;BME280;63555;49.920;17.868;2023-04-20T14:55:47;98785.56;;;17.42;57.22
69911;BME280;63555;49.920;17.868;2023-04-20T15:00:48;98779.19;;;17.35;57.27
69911;BME280;63555;49.920;17.868;2023-04-20T15:05:48;98772.59;;;19.21;53.91
69911;BME280;63555;49.920;17.868;2023-04-20T15:10:48;98777.03;;;20.77;50.28
69911;BME280;63555;49.920;17.868;2023-04-20T15:15:51;98765.06;;;21.40;49.12
69911;BME280;63555;49.920;17.868;2023-04-20T15:20:52;98776.63;;;21.26;49.24
69911;BME280;63555;49.920;17.868;2023-04-20T15:25:52;98770.06;;;20.91;49.62
69911;BME280;63555;49.920;17.868;2023-04-20T15:30:53;98768.56;;;20.20;50.85
69911;BME280;63555;49.920;17.868;2023-04-20T15:35:53;98769.69;;;19.39;53.00
69911;BME280;63555;49.920;17.868;2023-04-20T15:40:53;98776.59;;;19.01;53.50
69911;BME280;63555;49.920;17.868;2023-04-20T15:45:54;98772.41;;;18.33;54.87
69911;BME280;63555;49.920;17.868;2023-04-20T15:50:54;98773.06;;;18.27;55.26
69911;BME280;63555;49.920;17.868;2023-04-20T15:55:55;98774.34;;;17.65;56.03
69911;BME280;63555;49.920;17.868;2023-04-20T16:00:55;98770.75;;;16.96;57.62
69911;BME280;63555;49.920;17.868;2023-04-20T16:05:55;98766.81;;;16.47;58.39
69911;BME280;63555;49.920;17.868;2023-04-20T16:10:56;98761.53;;;15.84;59.57
69911;BME280;63555;49.920;17.868;2023-04-20T16:15:56;98760.66;;;15.93;59.50
69911;BME280;63555;49.920;17.868;2023-04-20T16:20:57;98757.03;;;16.47;57.96
69911;BME280;63555;49.920;17.868;2023-04-20T16:25:57;98754.75;;;16.35;57.83
69911;BME280;63555;49.920;17.868;2023-04-20T16:30:57;98755.81;;;16.42;57.75
69911;BME280;63555;49.920;17.868;2023-04-20T16:35:58;98770.47;;;16.46;57.70
69911;BME280;63555;49.920;17.868;2023-04-20T16:41:00;98762.56;;;16.18;58.13
69911;BME280;63555;49.920;17.868;2023-04-20T16:46:01;98766.03;;;15.83;59.20
69911;BME280;63555;49.920;17.868;2023-04-20T16:51:01;98773.06;;;15.38;60.46
69911;BME280;63555;49.920;17.868;2023-04-20T16:56:02;98769.28;;;14.84;61.76
69911;BME280;63555;49.920;17.868;2023-04-20T17:01:02;98773.59;;;14.27;62.93
69911;BME280;63555;49.920;17.868;2023-04-20T17:06:03;98778.34;;;13.64;64.81
69911;BME280;63555;49.920;17.868;2023-04-20T17:11:08;98778.91;;;13.06;66.14
69911;BME280;63555;49.920;17.868;2023-04-20T17:16:09;98781.22;;;12.58;66.99
69911;BME280;63555;49.920;17.868;2023-04-20T17:21:10;98786.34;;;12.18;68.35
69911;BME280;63555;49.920;17.868;2023-04-20T17:26:10;98783.28;;;11.79;68.91
69911;BME280;63555;49.920;17.868;2023-04-20T17:31:11;98786.78;;;11.46;69.83
69911;BME280;63555;49.920;17.868;2023-04-20T17:36:11;98795.63;;;11.12;70.57
69911;BME280;63555;49.920;17.868;2023-04-20T17:41:11;98798.22;;;10.78;71.05
69911;BME280;63555;49.920;17.868;2023-04-20T17:46:12;98801.34;;;10.48;71.64
69911;BME280;63555;49.920;17.868;2023-04-20T17:51:12;98806.00;;;10.21;72.93
69911;BME280;63555;49.920;17.868;2023-04-20T17:56:13;98808.59;;;9.97;73.33
69911;BME280;63555;49.920;17.868;2023-04-20T18:01:14;98804.66;;;9.79;74.15
69911;BME280;63555;49.920;17.868;2023-04-20T18:06:14;98813.88;;;9.61;74.44
69911;BME280;63555;49.920;17.868;2023-04-20T18:11:14;98823.88;;;9.43;75.09
69911;BME280;63555;49.920;17.868;2023-04-20T18:16:15;98823.38;;;9.25;74.93
69911;BME280;63555;49.920;17.868;2023-04-20T18:21:15;98828.53;;;9.01;75.43
69911;BME280;63555;49.920;17.868;2023-04-20T18:26:15;98838.81;;;8.79;75.86
69911;BME280;63555;49.920;17.868;2023-04-20T18:31:19;98834.41;;;8.52;75.66
69911;BME280;63555;49.920;17.868;2023-04-20T18:36:20;98840.41;;;8.27;76.20
69911;BME280;63555;49.920;17.868;2023-04-20T18:41:20;98841.91;;;8.05;76.94
69911;BME280;63555;49.920;17.868;2023-04-20T18:46:22;98851.03;;;7.85;77.15
69911;BME280;63555;49.920;17.868;2023-04-20T18:51:22;98852.16;;;7.66;77.62
69911;BME280;63555;49.920;17.868;2023-04-20T18:56:23;98853.97;;;7.52;78.14
69911;BME280;63555;49.920;17.868;2023-04-20T19:01:23;98859.69;;;7.44;78.51
69911;BME280;63555;49.920;17.868;2023-04-20T19:06:23;98859.31;;;7.36;78.35
69911;BME280;63555;49.920;17.868;2023-04-20T19:11:24;98864.91;;;7.30;79.08
69911;BME280;63555;49.920;17.868;2023-04-20T19:16:24;98869.59;;;7.25;79.49
69911;BME280;63555;49.920;17.868;2023-04-20T19:21:25;98862.75;;;7.22;79.35
69911;BME280;63555;49.920;17.868;2023-04-20T19:26:26;98871.47;;;7.23;79.91
69911;BME280;63555;49.920;17.868;2023-04-20T19:31:26;98869.97;;;7.19;79.62
69911;BME280;63555;49.920;17.868;2023-04-20T19:36:31;98866.88;;;7.12;79.76
69911;BME280;63555;49.920;17.868;2023-04-20T19:41:32;98861.06;;;7.07;79.89
69911;BME280;63555;49.920;17.868;2023-04-20T19:46:32;98876.22;;;7.02;80.20
69911;BME280;63555;49.920;17.868;2023-04-20T19:51:32;98870.59;;;6.94;80.44
69911;BME280;63555;49.920;17.868;2023-04-20T19:56:33;98865.94;;;6.83;80.43
69911;BME280;63555;49.920;17.868;2023-04-20T20:01:33;98869.66;;;6.65;79.94
69911;BME280;63555;49.920;17.868;2023-04-20T20:06:34;98868.00;;;6.48;80.43
69911;BME280;63555;49.920;17.868;2023-04-20T20:11:34;98877.56;;;6.33;80.27
69911;BME280;63555;49.920;17.868;2023-04-20T20:16:34;98882.66;;;6.21;80.65
69911;BME280;63555;49.920;17.868;2023-04-20T20:21:35;98874.78;;;6.05;80.99
69911;BME280;63555;49.920;17.868;2023-04-20T20:26:36;98877.22;;;5.92;81.10
69911;BME280;63555;49.920;17.868;2023-04-20T20:31:36;98873.66;;;5.78;81.47
69911;BME280;63555;49.920;17.868;2023-04-20T20:36:36;98883.94;;;5.65;81.55
69911;BME280;63555;49.920;17.868;2023-04-20T20:41:37;98887.03;;;5.56;81.94
69911;BME280;63555;49.920;17.868;2023-04-20T20:46:41;98884.84;;;5.48;81.63
69911;BME280;63555;49.920;17.868;2023-04-20T20:51:42;98889.47;;;5.43;81.94
69911;BME280;63555;49.920;17.868;2023-04-20T20:56:42;98889.78;;;5.37;81.95
69911;BME280;63555;49.920;17.868;2023-04-20T21:01:42;98889.41;;;5.27;81.94
69911;BME280;63555;49.920;17.868;2023-04-20T21:06:43;98891.72;;;5.16;81.50
69911;BME280;63555;49.920;17.868;2023-04-20T21:11:43;98888.81;;;5.05;81.71
69911;BME280;63555;49.920;17.868;2023-04-20T21:16:43;98883.03;;;4.98;82.01
69911;BME280;63555;49.920;17.868;2023-04-20T21:21:44;98893.03;;;4.90;81.96
69911;BME280;63555;49.920;17.868;2023-04-20T21:26:44;98893.81;;;4.75;81.92
69911;BME280;63555;49.920;17.868;2023-04-20T21:31:45;98896.19;;;4.62;82.02
69911;BME280;63555;49.920;17.868;2023-04-20T21:36:45;98895.25;;;4.46;81.76
69911;BME280;63555;49.920;17.868;2023-04-20T21:41:46;98893.28;;;4.32;82.06
69911;BME280;63555;49.920;17.868;2023-04-20T21:46:46;98888.34;;;4.26;83.12
69911;BME280;63555;49.920;17.868;2023-04-20T21:51:47;98885.03;;;4.23;82.86
69911;BME280;63555;49.920;17.868;2023-04-20T21:56:47;98882.88;;;4.13;82.63
69911;BME280;63555;49.920;17.868;2023-04-20T22:01:47;98886.69;;;4.06;83.06
69911;BME280;63555;49.920;17.868;2023-04-20T22:06:48;98879.31;;;3.97;82.61
69911;BME280;63555;49.920;17.868;2023-04-20T22:11:48;98888.41;;;3.89;82.53
69911;BME280;63555;49.920;17.868;2023-04-20T22:16:49;98887.06;;;3.80;83.27
69911;BME280;63555;49.920;17.868;2023-04-20T22:21:51;98888.47;;;3.68;82.67
69911;BME280;63555;49.920;17.868;2023-04-20T22:26:51;98882.06;;;3.57;82.87
69911;BME280;63555;49.920;17.868;2023-04-20T22:31:52;98878.28;;;3.43;82.63
69911;BME280;63555;49.920;17.868;2023-04-20T22:36:52;98878.34;;;3.42;82.71
69911;BME280;63555;49.920;17.868;2023-04-20T22:41:52;98887.34;;;3.35;82.70
69911;BME280;63555;49.920;17.868;2023-04-20T22:46:53;98892.06;;;3.27;83.08
69911;BME280;63555;49.920;17.868;2023-04-20T22:51:53;98887.25;;;3.17;82.87
69911;BME280;63555;49.920;17.868;2023-04-20T22:56:56;98886.09;;;3.04;82.99
69911;BME280;63555;49.920;17.868;2023-04-20T23:01:57;98878.81;;;2.92;82.93
69911;BME280;63555;49.920;17.868;2023-04-20T23:06:58;98887.03;;;2.83;83.04
69911;BME280;63555;49.920;17.868;2023-04-20T23:11:58;98878.50;;;2.79;82.99
69911;BME280;63555;49.920;17.868;2023-04-20T23:16:58;98870.88;;;2.75;83.74
69911;BME280;63555;49.920;17.868;2023-04-20T23:22:00;98867.63;;;2.70;82.88
69911;BME280;63555;49.920;17.868;2023-04-20T23:27:00;98866.13;;;2.64;83.18
69911;BME280;63555;49.920;17.868;2023-04-20T23:32:01;98875.13;;;2.55;83.53
69911;BME280;63555;49.920;17.868;2023-04-20T23:37:01;98876.47;;;2.44;83.17
69911;BME280;63555;49.920;17.868;2023-04-20T23:42:02;98875.03;;;2.37;82.79
69911;BME280;63555;49.920;17.868;2023-04-20T23:47:02;98873.66;;;2.28;83.04
69911;BME280;63555;49.920;17.868;2023-04-20T23:52:03;98873.13;;;2.20;82.66
69911;BME280;63555;49.920;17.868;2023-04-20T23:57:03;98864.72;;;2.13;82.74
